Strona główna
METAR-TAF:

METAR-TAF

Lotnisko :

Port lotniczy Sukhothai

Sukhothai, Tajlandia

Szerokość geograficzna: 17-14-16N, Długość geograficzna: 099-49-05E, wysokość: 55 m

METAR: brakujący

czas: 06:33 (23:33 UTC)

Prognoza

Raport powstał 30 godziny i 33 minut temu, godzina 17:00 UTC
Prognoza ważna od 28 godzina 18 UTC do 29 godzina 18 UTC
Wiatr 5 kt od północ
Widzialność 10 km lub więcej
Przerywane chmury na wysokości 2500 ft
Przejściowo
od 29 godzina 07 UTC do 29 godzina 13 UTC
Wiatr 15 kt od wschodnio-północny wschód
Widzialność: 3000 m
Mało chmury na wysokości 1500 ft
Przerywane chmury na wysokości 2500 ft
deszcz

TAF: VTPO 281700Z 2818/2918 35005KT 9999 BKN025 TEMPO 2907/2913 06015KT 3000 RA FEW015 BKN025

Obserwacja i prognoza pogody dla ponad 4000 lotnisk (raport METAR i TAF).

Dostępne stacje oznaczono żółtymi i czerwonymi punktami na mapie.

Najedź kursorem aby zobaczyć nazwę stacji.

Kliknij aby zobaczyć obserwacje i prognozy pogody.

Aby zmienić mapę: kliknij na zielony przycisk z czarnym krzyżykiem, aby powiększyć; na zielony przycisk z myślnikiem, aby pomniejszyć; na zielone strzałki, aby przejść do map sąsiednich.


METAR-TAF: